Time;durP1;ratioP1;P1;durP2;ratioP2;P2;SDS_P1;SDS_P2;PMS_P1;PMS_P2;Temp;Humidity;BMP_temperature;BMP_pressure;BME280_temperature;BME280_humidity;BME280_pressure;Samples;Min_cycle;Max_cycle;Signal;HPM_P1;HPM_P2
2021/05/02 00:00:53;;;;;;;;;;;;;;;;;;5064394;28;19936;-64
2021/05/02 00:03:19;;;;;;;;;;;;;;;;;;5057504;28;19925;-64
2021/05/02 00:05:46;;;;;;;;;;;;;;;;;;5069094;28;19925;-64
2021/05/02 00:08:12;;;;;;;;;;;;;;;;;;5067220;28;19928;-64
2021/05/02 00:10:38;;;;;;;;;;;;;;;;;;5058479;28;19931;-64
2021/05/02 00:13:06;;;;;;;;;;;;;;;;;;5058848;28;19925;-64
2021/05/02 00:15:33;;;;;;;;;;;;;;;;;;5055905;28;19924;-68
2021/05/02 00:17:59;;;;;;;;;;;;;;;;;;5060899;28;20330;-64
2021/05/02 00:20:26;;;;;;;;;;;;;;;;;;5065035;28;19925;-64
2021/05/02 00:22:52;;;;;;;;;;;;;;;;;;5063179;28;20468;-64
2021/05/02 00:25:19;;;;;;;;;;;;;;;;;;5077510;22;19925;-66
2021/05/02 00:27:45;;;;;;;;;;;;;;;;;;5078070;28;19928;-68
2021/05/02 00:30:12;;;;;;;;;;;;;;;;;;5064602;28;19924;-68
2021/05/02 00:32:38;;;;;;;;;;;;;;;;;;5066535;28;20311;-69
2021/05/02 00:35:05;;;;;;;;;;;;;;;;;;5071242;28;19978;-67
2021/05/02 00:37:31;;;;;;;;;;;;;;;;;;5065292;28;19931;-70
2021/05/02 00:39:58;;;;;;;;;;;;;;;;;;5059528;28;19931;-67
2021/05/02 00:42:24;;;;;;;;;;;;;;;;;;5063300;28;19970;-70
2021/05/02 00:44:51;;;;;;;;;;;;;;;;;;5063731;28;19925;-70
2021/05/02 00:47:17;;;;;;;;;;;;;;;;;;5075684;28;20364;-71
2021/05/02 00:49:44;;;;;;;;;;;;;;;;;;5075882;28;19931;-68
2021/05/02 00:52:10;;;;;;;;;;;;;;;;;;5062859;28;20023;-67
2021/05/02 00:54:37;;;;;;;;;;;;;;;;;;5073969;28;20016;-69
2021/05/02 00:57:03;;;;;;;;;;;;;;;;;;5072776;28;19992;-66
2021/05/02 00:59:29;;;;;;;;;;;;;;;;;;5061130;28;19931;-66
2021/05/02 01:01:56;;;;;;;;;;;;;;;;;;5068505;28;20677;-69
2021/05/02 01:04:22;;;;;;;;;;;;;;;;;;5075754;28;19924;-67
2021/05/02 01:06:49;;;;;;;;;;;;;;;;;;5061678;28;19931;-68
2021/05/02 01:09:15;;;;;;;;;;;;;;;;;;5070521;28;20073;-67
2021/05/02 01:11:42;;;;;;;;;;;;;;;;;;5073893;28;19925;-67
2021/05/02 01:14:08;;;;;;;;;;;;;;;;;;5067851;28;20015;-67
2021/05/02 01:16:35;;;;;;;;;;;;;;;;;;5069001;28;20020;-67
2021/05/02 01:19:01;;;;;;;;;;;;;;;;;;5085502;28;20343;-71
2021/05/02 01:21:28;;;;;;;;;;;;;;;;;;5071617;28;19929;-66
2021/05/02 01:23:54;;;;;;;;;;;;;;;;;;5073205;28;19932;-67
2021/05/02 01:26:21;;;;;;;;;;;;;;;;;;5080929;28;20456;-69
2021/05/02 01:28:47;;;;;;;;;;;;;;;;;;5071244;28;19925;-68
2021/05/02 01:31:14;;;;;;;;;;;;;;;;;;5077089;28;19959;-69
2021/05/02 01:33:40;;;;;;;;;;;;;;;;;;5078971;28;19932;-68
2021/05/02 01:36:07;;;;;;;;;;;;;;;;;;5070650;28;19925;-65
2021/05/02 01:38:34;;;;;;;;;;;;;;;;;;5070212;28;19929;-69
2021/05/02 01:41:00;;;;;;;;;;;;;;;;;;5081291;28;19940;-67
2021/05/02 01:43:27;;;;;;;;;;;;;;;;;;5085791;28;19928;-67
2021/05/02 01:45:55;;;;;;;;;;;;;;;;;;5078047;28;19925;-68
2021/05/02 01:48:21;;;;;;;;;;;;;;;;;;5069486;28;19947;-69
2021/05/02 01:50:48;;;;;;;;;;;;;;;;;;5063660;28;19931;-69
2021/05/02 01:53:15;;;;;;;;;;;;;;;;;;5063188;28;19974;-68
2021/05/02 01:55:41;;;;;;;;;;;;;;;;;;5064919;28;19924;-69
2021/05/02 01:58:07;;;;;;;;;;;;;;;;;;5067784;28;20024;-69
2021/05/02 02:00:34;;;;;;;;;;;;;;;;;;5067145;28;19925;-68
2021/05/02 02:03:00;;;;;;;;;;;;;;;;;;5066687;28;19924;-68
2021/05/02 02:05:27;;;;;;;;;;;;;;;;;;5062494;28;19925;-68
2021/05/02 02:07:53;;;;;;;;;;;;;;;;;;5067369;28;20300;-69
2021/05/02 02:10:20;;;;;;;;;;;;;;;;;;5054871;28;19925;-68
2021/05/02 02:12:46;;;;;;;;;;;;;;;;;;5060376;28;19925;-68
2021/05/02 02:15:13;;;;;;;;;;;;;;;;;;5069017;28;19947;-69
2021/05/02 02:17:39;;;;;;;;;;;;;;;;;;5060272;28;19925;-68
2021/05/02 02:20:06;;;;;;;;;;;;;;;;;;5058272;28;19929;-69
2021/05/02 02:22:32;;;;;;;;;;;;;;;;;;5063941;28;20011;-69
2021/05/02 02:24:59;;;;;;;;;;;;;;;;;;5059665;28;19951;-71
2021/05/02 02:27:26;;;;;;;;;;;;;;;;;;5057158;28;19925;-74
2021/05/02 02:29:52;;;;;;;;;;;;;;;;;;5061376;28;19981;-69
2021/05/02 02:32:19;;;;;;;;;;;;;;;;;;5051090;28;19932;-67
2021/05/02 02:34:45;;;;;;;;;;;;;;;;;;5064867;28;20363;-70
2021/05/02 02:37:12;;;;;;;;;;;;;;;;;;5056409;28;19925;-68
2021/05/02 02:39:38;;;;;;;;;;;;;;;;;;5056063;28;19935;-69
2021/05/02 02:42:05;;;;;;;;;;;;;;;;;;5066875;28;19935;-69
2021/05/02 02:44:31;;;;;;;;;;;;;;;;;;5073669;28;19924;-70
2021/05/02 02:46:58;;;;;;;;;;;;;;;;;;5056248;28;19925;-70
2021/05/02 02:49:25;;;;;;;;;;;;;;;;;;5055509;28;20116;-70
2021/05/02 02:51:51;;;;;;;;;;;;;;;;;;5064099;28;19924;-68
2021/05/02 02:54:18;;;;;;;;;;;;;;;;;;5071483;28;19928;-68
2021/05/02 02:56:44;;;;;;;;;;;;;;;;;;5058679;28;20375;-67
2021/05/02 02:59:11;;;;;;;;;;;;;;;;;;5066573;28;19925;-69
2021/05/02 03:01:37;;;;;;;;;;;;;;;;;;5063187;28;20305;-68
2021/05/02 03:04:04;;;;;;;;;;;;;;;;;;5067436;28;19974;-68
2021/05/02 03:06:30;;;;;;;;;;;;;;;;;;5058500;28;19932;-69
2021/05/02 03:08:57;;;;;;;;;;;;;;;;;;5055300;28;20321;-69
2021/05/02 03:11:23;;;;;;;;;;;;;;;;;;5062312;28;19925;-68
2021/05/02 03:13:49;;;;;;;;;;;;;;;;;;5067234;28;19931;-69
2021/05/02 03:16:16;;;;;;;;;;;;;;;;;;5057109;28;19951;-69
2021/05/02 03:18:42;;;;;;;;;;;;;;;;;;5065304;28;20359;-68
2021/05/02 03:21:09;;;;;;;;;;;;;;;;;;5065631;28;19984;-70
2021/05/02 03:23:36;;;;;;;;;;;;;;;;;;5066893;28;19925;-66
2021/05/02 03:26:02;;;;;;;;;;;;;;;;;;5070417;28;19943;-69
2021/05/02 03:28:28;;;;;;;;;;;;;;;;;;5067788;28;20388;-68
2021/05/02 03:30:55;;;;;;;;;;;;;;;;;;5069926;28;19929;-71
2021/05/02 03:33:21;;;;;;;;;;;;;;;;;;5059002;28;19924;-67
2021/05/02 03:35:48;;;;;;;;;;;;;;;;;;5060510;28;20032;-69
2021/05/02 03:38:14;;;;;;;;;;;;;;;;;;5059465;28;20389;-70
2021/05/02 03:40:41;;;;;;;;;;;;;;;;;;5062215;28;19975;-69
2021/05/02 03:43:07;;;;;;;;;;;;;;;;;;5062815;28;20183;-69
2021/05/02 03:45:34;;;;;;;;;;;;;;;;;;5067120;28;19931;-68
2021/05/02 03:48:00;;;;;;;;;;;;;;;;;;5064462;28;19967;-68
2021/05/02 03:50:27;;;;;;;;;;;;;;;;;;5064767;28;20323;-69
2021/05/02 03:52:53;;;;;;;;;;;;;;;;;;5068099;28;19925;-68
2021/05/02 03:55:20;;;;;;;;;;;;;;;;;;5061075;28;20352;-68
2021/05/02 03:57:46;;;;;;;;;;;;;;;;;;5058146;28;20044;-69
2021/05/02 04:00:13;;;;;;;;;;;;;;;;;;5069894;28;19925;-69
2021/05/02 04:02:39;;;;;;;;;;;;;;;;;;5069440;28;20003;-68
2021/05/02 04:05:06;;;;;;;;;;;;;;;;;;5062678;28;19924;-71
2021/05/02 04:07:32;;;;;;;;;;;;;;;;;;5068204;28;19931;-67
2021/05/02 04:09:59;;;;;;;;;;;;;;;;;;5065756;28;19925;-69
2021/05/02 04:12:25;;;;;;;;;;;;;;;;;;5072337;28;20019;-69
2021/05/02 04:14:52;;;;;;;;;;;;;;;;;;5060865;28;19925;-71
2021/05/02 04:17:18;;;;;;;;;;;;;;;;;;5064491;28;19925;-69
2021/05/02 04:19:45;;;;;;;;;;;;;;;;;;5065571;28;20470;-69
2021/05/02 04:22:11;;;;;;;;;;;;;;;;;;5061085;28;19967;-69
2021/05/02 04:24:41;;;;;;;;;;;;;;;;;;5060000;28;19925;-70
2021/05/02 04:27:07;;;;;;;;;;;;;;;;;;5061201;28;20024;-69
2021/05/02 04:29:34;;;;;;;;;;;;;;;;;;5058408;28;21099;-67
2021/05/02 04:32:00;;;;;;;;;;;;;;;;;;5058384;28;19955;-71
2021/05/02 04:34:29;;;;;;;;;;;;;;;;;;5065633;28;20366;-68
2021/05/02 04:36:55;;;;;;;;;;;;;;;;;;5063848;28;20380;-67
2021/05/02 04:39:22;;;;;;;;;;;;;;;;;;5070711;28;20019;-68
2021/05/02 04:41:48;;;;;;;;;;;;;;;;;;5068940;28;20311;-68
2021/05/02 04:44:15;;;;;;;;;;;;;;;;;;5064555;28;20015;-68
2021/05/02 04:46:41;;;;;;;;;;;;;;;;;;5067237;28;19956;-66
2021/05/02 04:49:08;;;;;;;;;;;;;;;;;;5066495;28;19924;-68
2021/05/02 04:51:34;;;;;;;;;;;;;;;;;;5054643;28;19935;-68
2021/05/02 04:54:01;;;;;;;;;;;;;;;;;;5067977;28;20322;-68
2021/05/02 04:56:27;;;;;;;;;;;;;;;;;;5057063;28;19929;-68
2021/05/02 04:58:54;;;;;;;;;;;;;;;;;;5057702;28;19931;-70
2021/05/02 05:01:20;;;;;;;;;;;;;;;;;;5065954;28;19931;-68
2021/05/02 05:03:47;;;;;;;;;;;;;;;;;;5069606;28;19984;-68
2021/05/02 05:06:13;;;;;;;;;;;;;;;;;;5064477;28;19928;-69
2021/05/02 05:08:40;;;;;;;;;;;;;;;;;;5060502;28;19928;-68
2021/05/02 05:11:06;;;;;;;;;;;;;;;;;;5056102;28;20020;-68
2021/05/02 05:13:33;;;;;;;;;;;;;;;;;;5063827;28;20019;-68
2021/05/02 05:15:59;;;;;;;;;;;;;;;;;;5068983;28;19976;-69
2021/05/02 05:18:26;;;;;;;;;;;;;;;;;;5064257;28;19941;-69
2021/05/02 05:20:52;;;;;;;;;;;;;;;;;;5056089;28;20274;-67
2021/05/02 05:23:19;;;;;;;;;;;;;;;;;;5065602;28;19931;-68
2021/05/02 05:25:45;;;;;;;;;;;;;;;;;;5065811;28;19925;-69
2021/05/02 05:28:12;;;;;;;;;;;;;;;;;;5066443;28;19946;-68
2021/05/02 05:30:38;;;;;;;;;;;;;;;;;;5062480;28;19943;-69
2021/05/02 05:33:05;;;;;;;;;;;;;;;;;;5071319;28;20380;-67
2021/05/02 05:35:31;;;;;;;;;;;;;;;;;;5066573;28;19936;-68
2021/05/02 05:37:58;;;;;;;;;;;;;;;;;;5063307;28;19925;-69
2021/05/02 05:40:24;;;;;;;;;;;;;;;;;;5059320;28;19975;-69
2021/05/02 05:42:51;;;;;;;;;;;;;;;;;;5055468;28;20027;-69
2021/05/02 05:45:20;;;;;;;;;;;;;;;;;;5063299;28;19924;-67
2021/05/02 05:47:46;;;;;;;;;;;;;;;;;;5065798;28;19932;-69
2021/05/02 05:50:14;;;;;;;;;;;;;;;;;;5058483;28;19967;-69
2021/05/02 05:52:41;;;;;;;;;;;;;;;;;;5059745;28;19970;-68
2021/05/02 05:55:07;;;;;;;;;;;;;;;;;;5053208;28;19924;-69
2021/05/02 05:57:34;;;;;;;;;;;;;;;;;;5061489;28;20015;-69
2021/05/02 06:00:00;;;;;;;;;;;;;;;;;;5082253;28;20011;-66
2021/05/02 06:02:27;;;;;;;;;;;;;;;;;;5081113;28;19936;-69
2021/05/02 06:04:53;;;;;;;;;;;;;;;;;;5079221;28;19928;-68
2021/05/02 06:07:20;;;;;;;;;;;;;;;;;;5071109;28;19924;-68
2021/05/02 06:09:46;;;;;;;;;;;;;;;;;;5069673;28;19964;-65
2021/05/02 06:12:13;;;;;;;;;;;;;;;;;;5074476;28;19984;-68
2021/05/02 06:14:39;;;;;;;;;;;;;;;;;;5079329;28;20002;-67
2021/05/02 06:17:06;;;;;;;;;;;;;;;;;;5073693;28;19980;-68
2021/05/02 06:19:32;;;;;;;;;;;;;;;;;;5072279;28;19945;-68
2021/05/02 06:22:03;;;;;;;;;;;;;;;;;;5073361;28;19971;-68
2021/05/02 06:24:29;;;;;;;;;;;;;;;;;;5078153;28;19925;-69
2021/05/02 06:26:56;;;;;;;;;;;;;;;;;;5086649;22;20368;-64
2021/05/02 06:29:24;;;;;;;;;;;;;;;;;;5084912;28;19924;-64
2021/05/02 06:31:52;;;;;;;;;;;;;;;;;;5079846;28;19942;-64
2021/05/02 06:34:19;;;;;;;;;;;;;;;;;;5078487;28;19989;-63
2021/05/02 06:36:45;;;;;;;;;;;;;;;;;;5078394;28;20440;-63
2021/05/02 06:39:12;;;;;;;;;;;;;;;;;;5077507;28;19924;-63
2021/05/02 06:41:39;;;;;;;;;;;;;;;;;;5082425;28;20409;-64
2021/05/02 06:44:06;;;;;;;;;;;;;;;;;;5075184;28;19924;-65
2021/05/02 06:46:32;;;;;;;;;;;;;;;;;;5076049;28;19925;-64
2021/05/02 06:48:59;;;;;;;;;;;;;;;;;;5079629;28;19932;-65
2021/05/02 06:51:25;;;;;;;;;;;;;;;;;;5079911;28;19931;-64
2021/05/02 06:53:52;;;;;;;;;;;;;;;;;;5079900;28;19968;-64
2021/05/02 06:56:18;;;;;;;;;;;;;;;;;;5082216;28;19924;-65
2021/05/02 06:58:45;;;;;;;;;;;;;;;;;;5083369;28;19954;-65
2021/05/02 07:01:11;;;;;;;;;;;;;;;;;;5080752;28;19924;-65
2021/05/02 07:03:38;;;;;;;;;;;;;;;;;;5081561;28;20307;-65
2021/05/02 07:06:04;;;;;;;;;;;;;;;;;;5082656;28;20109;-65
2021/05/02 07:08:31;;;;;;;;;;;;;;;;;;5084071;28;19924;-65
2021/05/02 07:10:57;;;;;;;;;;;;;;;;;;5082128;28;20353;-64
2021/05/02 07:13:24;;;;;;;;;;;;;;;;;;5083597;28;19965;-65
2021/05/02 07:15:51;;;;;;;;;;;;;;;;;;5079587;28;19925;-64
2021/05/02 07:18:17;;;;;;;;;;;;;;;;;;5079328;28;20414;-64
2021/05/02 07:20:44;;;;;;;;;;;;;;;;;;5079253;28;19932;-65
2021/05/02 07:23:10;;;;;;;;;;;;;;;;;;5079330;28;19932;-66
2021/05/02 07:25:37;;;;;;;;;;;;;;;;;;5081336;28;19982;-65
2021/05/02 07:28:03;;;;;;;;;;;;;;;;;;5085364;28;19932;-64
2021/05/02 07:30:29;;;;;;;;;;;;;;;;;;5078227;28;19931;-66
2021/05/02 07:32:56;;;;;;;;;;;;;;;;;;5079199;28;19924;-65
2021/05/02 07:35:22;;;;;;;;;;;;;;;;;;5077178;28;20392;-66
2021/05/02 07:37:49;;;;;;;;;;;;;;;;;;5081313;28;20015;-64
2021/05/02 07:40:15;;;;;;;;;;;;;;;;;;5082561;28;19924;-66
2021/05/02 07:42:42;;;;;;;;;;;;;;;;;;5079383;28;19924;-66
2021/05/02 07:45:08;;;;;;;;;;;;;;;;;;5081104;28;19968;-65
2021/05/02 07:47:36;;;;;;;;;;;;;;;;;;5081681;28;19925;-66
2021/05/02 07:50:02;;;;;;;;;;;;;;;;;;5078052;28;20293;-66
2021/05/02 07:52:29;;;;;;;;;;;;;;;;;;5079416;28;19932;-64
2021/05/02 07:54:55;;;;;;;;;;;;;;;;;;5079064;28;19931;-65
2021/05/02 07:57:22;;;;;;;;;;;;;;;;;;5076967;28;20366;-65
2021/05/02 07:59:48;;;;;;;;;;;;;;;;;;5086704;28;19972;-66
2021/05/02 08:02:15;;;;;;;;;;;;;;;;;;5089652;28;19932;-66
2021/05/02 08:04:42;;;;;;;;;;;;;;;;;;5090736;28;20441;-66
2021/05/02 08:07:08;;;;;;;;;;;;;;;;;;5077114;28;20470;-66
2021/05/02 08:09:35;;;;;;;;;;;;;;;;;;5086644;28;19931;-65
2021/05/02 08:12:01;;;;;;;;;;;;;;;;;;5083751;28;20002;-65
2021/05/02 08:14:28;;;;;;;;;;;;;;;;;;5091147;28;19943;-66
2021/05/02 08:16:55;;;;;;;;;;;;;;;;;;5090743;28;19963;-66
2021/05/02 08:19:21;;;;;;;;;;;;;;;;;;5090439;28;19935;-65
2021/05/02 08:21:47;;;;;;;;;;;;;;;;;;5075654;28;19928;-64
2021/05/02 08:24:14;;;;;;;;;;;;;;;;;;5083463;28;20318;-66
2021/05/02 08:26:41;;;;;;;;;;;;;;;;;;5082447;28;19965;-65
2021/05/02 08:29:07;;;;;;;;;;;;;;;;;;5075321;28;20434;-64
2021/05/02 08:31:34;;;;;;;;;;;;;;;;;;5077566;28;19924;-65
2021/05/02 08:34:00;;;;;;;;;;;;;;;;;;5084899;28;20024;-65
2021/05/02 08:36:27;;;;;;;;;;;;;;;;;;5088402;28;20620;-66
2021/05/02 08:38:53;;;;;;;;;;;;;;;;;;5075343;28;20023;-66
2021/05/02 08:41:20;;;;;;;;;;;;;;;;;;5080502;28;19963;-65
2021/05/02 08:43:47;;;;;;;;;;;;;;;;;;5074663;28;19943;-66
2021/05/02 08:46:13;;;;;;;;;;;;;;;;;;5081278;28;20299;-66
2021/05/02 08:48:40;;;;;;;;;;;;;;;;;;5084083;28;20402;-66
2021/05/02 08:51:06;;;;;;;;;;;;;;;;;;5082363;28;19924;-65
2021/05/02 08:53:33;;;;;;;;;;;;;;;;;;5081931;28;20435;-66
2021/05/02 08:55:59;;;;;;;;;;;;;;;;;;5082430;28;19943;-66
2021/05/02 08:58:26;;;;;;;;;;;;;;;;;;5079628;28;20311;-65
2021/05/02 09:00:52;;;;;;;;;;;;;;;;;;5084119;28;19924;-65
2021/05/02 09:03:19;;;;;;;;;;;;;;;;;;5080134;28;20257;-66
2021/05/02 09:05:45;;;;;;;;;;;;;;;;;;5078757;28;19924;-66
2021/05/02 09:08:12;;;;;;;;;;;;;;;;;;5085484;28;20300;-65
2021/05/02 09:10:38;;;;;;;;;;;;;;;;;;5084256;28;19959;-66
2021/05/02 09:13:13;;;;;;;;;;;;;;;;;;5078705;28;19967;-66
2021/05/02 09:15:40;;;;;;;;;;;;;;;;;;5082027;28;19978;-66
2021/05/02 09:18:14;;;;;;;;;;;;;;;;;;5087372;28;19924;-65
2021/05/02 09:20:40;;;;;;;;;;;;;;;;;;5090230;28;19931;-66
2021/05/02 09:23:07;;;;;;;;;;;;;;;;;;5081266;28;20359;-66
2021/05/02 09:25:33;;;;;;;;;;;;;;;;;;5087734;28;19973;-66
2021/05/02 09:28:00;;;;;;;;;;;;;;;;;;5077085;28;19933;-65
2021/05/02 09:30:26;;;;;;;;;;;;;;;;;;5087358;28;19935;-66
2021/05/02 09:32:53;;;;;;;;;;;;;;;;;;5081965;28;20046;-65
2021/05/02 09:35:19;;;;;;;;;;;;;;;;;;5076232;28;19924;-67
2021/05/02 09:37:46;;;;;;;;;;;;;;;;;;5084122;28;20501;-66
2021/05/02 09:40:12;;;;;;;;;;;;;;;;;;5081756;28;19975;-65
2021/05/02 09:42:40;;;;;;;;;;;;;;;;;;5085210;28;20018;-65
2021/05/02 09:45:08;;;;;;;;;;;;;;;;;;5091008;28;19964;-66
2021/05/02 09:47:34;;;;;;;;;;;;;;;;;;5087923;28;19936;-66
2021/05/02 09:50:01;;;;;;;;;;;;;;;;;;5089722;28;20390;-65
2021/05/02 09:52:27;;;;;;;;;;;;;;;;;;5085650;28;19936;-67
2021/05/02 09:54:54;;;;;;;;;;;;;;;;;;5080217;28;19931;-66
2021/05/02 09:57:20;;;;;;;;;;;;;;;;;;5080522;28;20037;-66
2021/05/02 09:59:47;;;;;;;;;;;;;;;;;;5080783;28;19928;-66
2021/05/02 10:02:13;;;;;;;;;;;;;;;;;;5087281;28;19924;-65
2021/05/02 10:04:42;;;;;;;;;;;;;;;;;;5086278;28;19928;-66
2021/05/02 10:07:08;;;;;;;;;;;;;;;;;;5083261;28;19967;-66
2021/05/02 10:09:35;;;;;;;;;;;;;;;;;;5085156;28;19986;-66
2021/05/02 10:12:01;;;;;;;;;;;;;;;;;;5084958;28;20019;-65
2021/05/02 10:14:28;;;;;;;;;;;;;;;;;;5084959;28;19931;-68
2021/05/02 10:16:55;;;;;;;;;;;;;;;;;;5087018;28;19967;-66
2021/05/02 10:19:23;;;;;;;;;;;;;;;;;;5084910;28;19925;-66
2021/05/02 10:21:52;;;;;;;;;;;;;;;;;;5082315;28;19977;-67
2021/05/02 10:24:19;;;;;;;;;;;;;;;;;;5081208;28;19979;-65
2021/05/02 10:26:49;;;;;;;;;;;;;;;;;;5083467;28;19931;-66
2021/05/02 10:29:16;;;;;;;;;;;;;;;;;;5080045;28;19924;-65
2021/05/02 10:31:42;;;;;;;;;;;;;;;;;;5086809;28;20341;-66
2021/05/02 10:34:09;;;;;;;;;;;;;;;;;;5083689;28;20015;-65
2021/05/02 10:36:35;;;;;;;;;;;;;;;;;;5085566;28;20299;-66
2021/05/02 10:39:02;;;;;;;;;;;;;;;;;;5083049;28;19932;-65
2021/05/02 10:41:29;;;;;;;;;;;;;;;;;;5084155;28;19931;-66
2021/05/02 10:43:55;;;;;;;;;;;;;;;;;;5083067;28;19928;-66
2021/05/02 10:46:22;;;;;;;;;;;;;;;;;;5081436;28;19924;-66
2021/05/02 10:48:49;;;;;;;;;;;;;;;;;;5066815;28;19930;-66
2021/05/02 10:51:15;;;;;;;;;;;;;;;;;;5084785;28;19924;-66
2021/05/02 10:53:42;;;;;;;;;;;;;;;;;;5083860;28;20350;-69
2021/05/02 10:56:10;;;;;;;;;;;;;;;;;;5085312;28;19928;-64
2021/05/02 10:58:37;;;;;;;;;;;;;;;;;;5082413;28;19928;-66
2021/05/02 11:01:04;;;;;;;;;;;;;;;;;;5085592;28;19967;-66
2021/05/02 11:03:31;;;;;;;;;;;;;;;;;;5083902;28;19929;-65
2021/05/02 11:06:00;;;;;;;;;;;;;;;;;;5085123;28;19932;-65
2021/05/02 11:08:26;;;;;;;;;;;;;;;;;;5083401;28;20291;-65
2021/05/02 11:10:53;;;;;;;;;;;;;;;;;;5081555;28;19975;-65
2021/05/02 11:13:19;;;;;;;;;;;;;;;;;;5083452;28;19932;-65
2021/05/02 11:15:46;;;;;;;;;;;;;;;;;;5079369;28;20646;-65
2021/05/02 11:18:15;;;;;;;;;;;;;;;;;;5083694;28;19969;-65
2021/05/02 11:20:42;;;;;;;;;;;;;;;;;;5081469;28;19924;-65
2021/05/02 11:23:08;;;;;;;;;;;;;;;;;;5071715;28;20301;-66
2021/05/02 11:25:35;;;;;;;;;;;;;;;;;;5075990;28;19925;-66
2021/05/02 11:28:04;;;;;;;;;;;;;;;;;;5072442;28;19967;-65
2021/05/02 11:30:31;;;;;;;;;;;;;;;;;;5078478;28;20013;-65
2021/05/02 11:32:58;;;;;;;;;;;;;;;;;;5076268;28;19924;-65
2021/05/02 11:35:25;;;;;;;;;;;;;;;;;;5069665;28;19931;-66
2021/05/02 11:37:51;;;;;;;;;;;;;;;;;;5061874;28;19925;-67
2021/05/02 11:40:18;;;;;;;;;;;;;;;;;;5082684;28;20011;-65
2021/05/02 11:42:44;;;;;;;;;;;;;;;;;;5075899;28;19924;-65
2021/05/02 11:45:11;;;;;;;;;;;;;;;;;;5084922;28;19939;-65
2021/05/02 11:47:37;;;;;;;;;;;;;;;;;;5093415;28;19978;-65
2021/05/02 11:50:04;;;;;;;;;;;;;;;;;;5090483;28;19924;-65
2021/05/02 11:52:30;;;;;;;;;;;;;;;;;;5081281;28;19967;-65
2021/05/02 11:54:57;;;;;;;;;;;;;;;;;;5078138;28;19972;-66
2021/05/02 11:57:23;;;;;;;;;;;;;;;;;;5088446;28;20003;-66
2021/05/02 11:59:50;;;;;;;;;;;;;;;;;;5089430;28;19925;-67
2021/05/02 12:02:16;;;;;;;;;;;;;;;;;;5090669;28;19963;-66
2021/05/02 12:04:43;;;;;;;;;;;;;;;;;;5065575;28;19931;-66
2021/05/02 12:07:10;;;;;;;;;;;;;;;;;;5087544;28;20324;-65
2021/05/02 12:09:36;;;;;;;;;;;;;;;;;;5092125;28;20387;-65
2021/05/02 12:12:04;;;;;;;;;;;;;;;;;;5090045;28;20350;-66
2021/05/02 12:14:31;;;;;;;;;;;;;;;;;;5092638;28;19924;-65
2021/05/02 12:16:58;;;;;;;;;;;;;;;;;;5088982;28;19930;-65
2021/05/02 12:19:25;;;;;;;;;;;;;;;;;;5086856;28;19928;-65
2021/05/02 12:21:51;;;;;;;;;;;;;;;;;;5085297;28;19931;-66
2021/05/02 12:24:19;;;;;;;;;;;;;;;;;;5094144;28;20122;-65
2021/05/02 12:26:46;;;;;;;;;;;;;;;;;;5098033;22;19978;-69
2021/05/02 12:29:12;;;;;;;;;;;;;;;;;;5069193;28;20186;-67
2021/05/02 12:31:39;;;;;;;;;;;;;;;;;;5060211;28;20015;-67
2021/05/02 12:34:05;;;;;;;;;;;;;;;;;;5064698;28;19970;-68
2021/05/02 12:36:32;;;;;;;;;;;;;;;;;;5073279;28;19932;-68
2021/05/02 12:38:59;;;;;;;;;;;;;;;;;;5075084;28;20268;-67
2021/05/02 12:41:25;;;;;;;;;;;;;;;;;;5060769;28;19979;-69
2021/05/02 12:43:52;;;;;;;;;;;;;;;;;;5067485;28;20011;-68
2021/05/02 12:46:18;;;;;;;;;;;;;;;;;;5067240;28;19930;-67
2021/05/02 12:48:46;;;;;;;;;;;;;;;;;;5054988;28;19932;-68
2021/05/02 12:51:15;;;;;;;;;;;;;;;;;;5068854;28;19947;-68
2021/05/02 12:53:42;;;;;;;;;;;;;;;;;;5054116;28;20431;-68
2021/05/02 12:56:08;;;;;;;;;;;;;;;;;;5067489;28;19964;-68
2021/05/02 12:58:35;;;;;;;;;;;;;;;;;;5066686;28;20414;-68
2021/05/02 13:01:05;;;;;;;;;;;;;;;;;;5069806;28;19924;-68
2021/05/02 13:03:35;;;;;;;;;;;;;;;;;;5061620;28;19929;-68
2021/05/02 13:06:02;;;;;;;;;;;;;;;;;;5091919;28;19931;-68
2021/05/02 13:08:28;;;;;;;;;;;;;;;;;;5085137;28;20030;-68
2021/05/02 13:10:55;;;;;;;;;;;;;;;;;;5063376;28;20007;-68
2021/05/02 13:13:22;;;;;;;;;;;;;;;;;;5063573;28;20400;-68
2021/05/02 13:15:49;;;;;;;;;;;;;;;;;;5054825;28;19925;-68
2021/05/02 13:18:16;;;;;;;;;;;;;;;;;;5060287;28;19925;-67
2021/05/02 13:20:45;;;;;;;;;;;;;;;;;;5052180;28;19929;-68
2021/05/02 13:23:11;;;;;;;;;;;;;;;;;;5047922;28;19928;-68
2021/05/02 13:25:38;;;;;;;;;;;;;;;;;;5045238;28;19929;-67
2021/05/02 13:28:05;;;;;;;;;;;;;;;;;;5046698;28;19986;-67
2021/05/02 13:30:33;;;;;;;;;;;;;;;;;;5045790;28;20025;-67
2021/05/02 13:32:59;;;;;;;;;;;;;;;;;;5046347;28;20534;-67
2021/05/02 13:35:26;;;;;;;;;;;;;;;;;;5048492;28;19947;-67
2021/05/02 13:37:52;;;;;;;;;;;;;;;;;;5047403;28;19930;-68
2021/05/02 13:40:19;;;;;;;;;;;;;;;;;;5045550;28;19933;-68
2021/05/02 13:42:46;;;;;;;;;;;;;;;;;;5046782;28;19925;-68
2021/05/02 13:45:13;;;;;;;;;;;;;;;;;;5044347;28;19925;-67
2021/05/02 13:47:39;;;;;;;;;;;;;;;;;;5036141;28;20015;-67
2021/05/02 13:50:05;;;;;;;;;;;;;;;;;;5045153;28;19924;-67
2021/05/02 13:52:33;;;;;;;;;;;;;;;;;;5067147;28;19925;-67
2021/05/02 13:54:59;;;;;;;;;;;;;;;;;;5055791;28;20538;-68
2021/05/02 13:57:26;;;;;;;;;;;;;;;;;;5042268;28;19933;-68
2021/05/02 13:59:55;;;;;;;;;;;;;;;;;;5045378;28;20022;-67
2021/05/02 14:02:21;;;;;;;;;;;;;;;;;;5046018;28;20305;-67
2021/05/02 14:04:48;;;;;;;;;;;;;;;;;;5048603;28;20023;-68
2021/05/02 14:07:15;;;;;;;;;;;;;;;;;;5046367;28;19990;-67
2021/05/02 14:09:43;;;;;;;;;;;;;;;;;;5042913;28;20448;-69
2021/05/02 14:12:09;;;;;;;;;;;;;;;;;;5042323;28;20320;-69
2021/05/02 14:14:36;;;;;;;;;;;;;;;;;;5039706;28;19932;-67
2021/05/02 14:17:03;;;;;;;;;;;;;;;;;;5041344;28;19983;-67
2021/05/02 14:19:29;;;;;;;;;;;;;;;;;;5039279;28;20012;-69
2021/05/02 14:21:56;;;;;;;;;;;;;;;;;;5039832;28;19925;-69
2021/05/02 14:24:23;;;;;;;;;;;;;;;;;;5041484;28;20438;-69
2021/05/02 14:26:49;;;;;;;;;;;;;;;;;;5041589;28;19929;-66
2021/05/02 14:29:17;;;;;;;;;;;;;;;;;;5038880;28;19926;-68
2021/05/02 14:31:44;;;;;;;;;;;;;;;;;;5035388;28;19932;-68
2021/05/02 14:34:11;;;;;;;;;;;;;;;;;;5041438;28;20003;-68
2021/05/02 14:36:40;;;;;;;;;;;;;;;;;;5039609;28;19928;-68
2021/05/02 14:39:07;;;;;;;;;;;;;;;;;;5053561;28;19933;-69
2021/05/02 14:41:34;;;;;;;;;;;;;;;;;;5058122;28;20292;-68
2021/05/02 14:44:00;;;;;;;;;;;;;;;;;;5039149;28;19976;-69
2021/05/02 14:46:27;;;;;;;;;;;;;;;;;;5035106;28;19968;-68
2021/05/02 14:48:55;;;;;;;;;;;;;;;;;;5035459;28;19955;-68
2021/05/02 14:51:22;;;;;;;;;;;;;;;;;;5041964;28;19932;-68
2021/05/02 14:53:48;;;;;;;;;;;;;;;;;;5038683;28;20397;-67
2021/05/02 14:56:15;;;;;;;;;;;;;;;;;;5040284;28;19940;-67
2021/05/02 14:58:41;;;;;;;;;;;;;;;;;;5038789;28;20379;-67
2021/05/02 15:01:10;;;;;;;;;;;;;;;;;;5037948;28;19928;-67
2021/05/02 15:03:37;;;;;;;;;;;;;;;;;;5041691;28;19932;-67
2021/05/02 15:06:03;;;;;;;;;;;;;;;;;;5037672;28;19929;-69
2021/05/02 15:08:30;;;;;;;;;;;;;;;;;;5036944;28;19976;-66
2021/05/02 15:10:56;;;;;;;;;;;;;;;;;;5041293;28;19931;-67
2021/05/02 15:13:23;;;;;;;;;;;;;;;;;;5040691;28;19929;-67
2021/05/02 15:15:50;;;;;;;;;;;;;;;;;;5043944;28;20336;-67
2021/05/02 15:18:18;;;;;;;;;;;;;;;;;;5045111;28;20008;-68
2021/05/02 15:20:45;;;;;;;;;;;;;;;;;;5039537;28;19932;-68
2021/05/02 15:23:11;;;;;;;;;;;;;;;;;;5045267;28;20023;-67
2021/05/02 15:25:38;;;;;;;;;;;;;;;;;;5047696;28;19995;-67
2021/05/02 15:28:04;;;;;;;;;;;;;;;;;;5066838;28;19960;-68
2021/05/02 15:30:33;;;;;;;;;;;;;;;;;;5052580;28;19929;-68
2021/05/02 15:32:59;;;;;;;;;;;;;;;;;;5043601;28;20420;-68
2021/05/02 15:35:26;;;;;;;;;;;;;;;;;;5046684;28;19925;-68
2021/05/02 15:38:01;;;;;;;;;;;;;;;;;;5046189;28;19968;-68
2021/05/02 15:40:28;;;;;;;;;;;;;;;;;;5041709;28;19932;-67
2021/05/02 15:42:55;;;;;;;;;;;;;;;;;;5040323;28;19928;-66
2021/05/02 15:45:22;;;;;;;;;;;;;;;;;;5046658;28;19932;-67
2021/05/02 15:47:49;;;;;;;;;;;;;;;;;;5043579;28;20444;-67
2021/05/02 15:50:16;;;;;;;;;;;;;;;;;;5047866;28;20349;-67
2021/05/02 15:52:42;;;;;;;;;;;;;;;;;;5046705;28;20024;-68
2021/05/02 15:55:13;;;;;;;;;;;;;;;;;;5045726;28;19969;-66
2021/05/02 15:57:39;;;;;;;;;;;;;;;;;;5045798;28;20238;-68
2021/05/02 16:00:06;;;;;;;;;;;;;;;;;;5045286;28;19928;-68
2021/05/02 16:02:35;;;;;;;;;;;;;;;;;;5045638;28;20384;-68
2021/05/02 16:05:04;;;;;;;;;;;;;;;;;;5047703;28;19928;-68
2021/05/02 16:07:30;;;;;;;;;;;;;;;;;;5046333;28;19925;-68
2021/05/02 16:09:58;;;;;;;;;;;;;;;;;;5043669;28;19925;-68
2021/05/02 16:12:24;;;;;;;;;;;;;;;;;;5047264;28;19932;-66
2021/05/02 16:14:51;;;;;;;;;;;;;;;;;;5059673;28;19913;-68
2021/05/02 16:17:17;;;;;;;;;;;;;;;;;;5062664;28;19931;-67
2021/05/02 16:19:44;;;;;;;;;;;;;;;;;;5043851;28;20027;-68
2021/05/02 16:22:10;;;;;;;;;;;;;;;;;;5046636;28;19963;-68
2021/05/02 16:24:37;;;;;;;;;;;;;;;;;;5043912;28;19964;-68
2021/05/02 16:27:05;;;;;;;;;;;;;;;;;;5044640;28;20023;-68
2021/05/02 16:29:34;;;;;;;;;;;;;;;;;;5046005;28;19936;-68
2021/05/02 16:32:01;;;;;;;;;;;;;;;;;;5048028;28;19967;-68
2021/05/02 16:34:27;;;;;;;;;;;;;;;;;;5047038;28;19940;-68
2021/05/02 16:36:54;;;;;;;;;;;;;;;;;;5045897;28;20315;-68
2021/05/02 16:39:21;;;;;;;;;;;;;;;;;;5043537;28;19973;-68
2021/05/02 16:41:50;;;;;;;;;;;;;;;;;;5043343;28;19925;-68